Time;durP1;ratioP1;P1;durP2;ratioP2;P2;SDS_P1;SDS_P2;PMS_P1;PMS_P2;Temp;Humidity;BMP_temperature;BMP_pressure;BME280_temperature;BME280_humidity;BME280_pressure;Samples;Min_cycle;Max_cycle;Signal;HPM_P1;HPM_P2
2024/01/07 00:01:25;;;;;;;2.72;2.40;;;0.10;99.90;;;;;;5086656;28;20462;-64
2024/01/07 00:03:52;;;;;;;3.83;2.70;;;0.10;99.90;;;;;;5089118;28;20040;-63
2024/01/07 00:06:18;;;;;;;4.45;2.65;;;0.10;99.90;;;;;;5049697;28;20093;-64
2024/01/07 00:08:43;;;;;;;5.03;2.60;;;0.10;99.90;;;;;;5089319;28;20039;-64
2024/01/07 00:11:09;;;;;;;3.42;2.50;;;0.20;99.90;;;;;;5093214;28;20552;-64
2024/01/07 00:13:35;;;;;;;4.72;3.05;;;0.20;99.90;;;;;;5083795;28;20424;-63
2024/01/07 00:16:01;;;;;;;2.78;2.42;;;0.10;99.90;;;;;;5099518;28;20049;-63
2024/01/07 00:18:27;;;;;;;5.00;2.72;;;0.20;99.90;;;;;;5086033;28;20035;-64
2024/01/07 00:20:58;;;;;;;5.18;3.03;;;0.20;99.90;;;;;;5092927;28;20304;-63
2024/01/07 00:23:24;;;;;;;4.47;2.70;;;0.20;99.90;;;;;;5077892;28;20048;-64
2024/01/07 00:25:50;;;;;;;7.18;3.00;;;0.20;99.90;;;;;;5081584;28;20108;-64
2024/01/07 00:28:15;;;;;;;5.53;2.58;;;0.20;99.90;;;;;;5097110;28;20075;-64
2024/01/07 00:30:41;;;;;;;4.13;2.70;;;0.20;99.90;;;;;;5087283;28;20066;-64
2024/01/07 00:33:07;;;;;;;4.30;3.00;;;0.20;99.90;;;;;;5072989;28;20197;-63
2024/01/07 00:35:32;;;;;;;3.80;2.75;;;0.20;99.90;;;;;;5086622;28;20036;-64
2024/01/07 00:37:58;;;;;;;3.38;2.15;;;0.20;99.90;;;;;;5080071;28;20379;-63
2024/01/07 00:40:24;;;;;;;4.57;2.92;;;0.20;99.90;;;;;;5092977;28;20095;-64
2024/01/07 00:42:51;;;;;;;5.50;2.78;;;0.10;99.90;;;;;;5084274;28;20119;-63
2024/01/07 00:45:17;;;;;;;3.47;2.15;;;0.10;99.90;;;;;;5089550;28;20139;-64
2024/01/07 00:47:43;;;;;;;2.95;2.45;;;0.10;99.90;;;;;;5095983;28;20036;-64
2024/01/07 00:50:09;;;;;;;4.35;2.65;;;0.10;99.90;;;;;;5089988;28;20070;-63
2024/01/07 00:52:36;;;;;;;4.88;2.17;;;0.10;99.90;;;;;;5102771;28;20092;-63
2024/01/07 00:55:06;;;;;;;6.78;2.80;;;0.00;99.90;;;;;;5087166;28;20063;-63
2024/01/07 00:57:33;;;;;;;5.53;2.10;;;0.00;99.90;;;;;;5092076;28;20048;-64
2024/01/07 01:00:00;;;;;;;4.90;2.58;;;0.00;99.90;;;;;;5099847;28;20060;-63
2024/01/07 01:02:25;;;;;;;6.07;2.88;;;0.00;99.90;;;;;;5082877;28;20140;-64
2024/01/07 01:04:51;;;;;;;6.88;2.40;;;0.00;99.90;;;;;;5062567;28;20582;-63
2024/01/07 01:07:17;;;;;;;5.13;2.15;;;0.10;99.90;;;;;;5076408;28;20052;-63
2024/01/07 01:09:43;;;;;;;3.63;2.90;;;0.00;99.90;;;;;;5082102;28;20092;-63
2024/01/07 01:12:08;;;;;;;4.65;2.72;;;0.00;99.90;;;;;;5084154;28;20050;-63
2024/01/07 01:14:34;;;;;;;5.97;2.95;;;-0.10;99.90;;;;;;5068692;28;20040;-63
2024/01/07 01:17:00;;;;;;;9.02;2.50;;;0.00;99.90;;;;;;5066972;28;20109;-63
2024/01/07 01:19:25;;;;;;;6.03;2.20;;;0.00;99.90;;;;;;5078925;28;20051;-64
2024/01/07 01:21:51;;;;;;;8.52;2.92;;;-0.10;99.90;;;;;;5077962;28;20047;-63
2024/01/07 01:24:17;;;;;;;7.38;3.22;;;0.00;99.90;;;;;;5059858;28;20485;-63
2024/01/07 01:26:42;;;;;;;4.57;2.75;;;-0.10;99.90;;;;;;5060628;28;20040;-63
2024/01/07 01:29:08;;;;;;;4.15;2.60;;;-0.10;99.90;;;;;;5056761;28;20056;-64
2024/01/07 01:31:34;;;;;;;2.58;2.17;;;-0.10;99.90;;;;;;5059740;28;20084;-64
2024/01/07 01:33:59;;;;;;;2.28;2.13;;;-0.20;99.90;;;;;;5083248;28;20036;-63
2024/01/07 01:36:26;;;;;;;5.20;2.58;;;-0.10;99.90;;;;;;5070468;28;20036;-64
2024/01/07 01:38:52;;;;;;;5.45;2.60;;;-0.10;99.90;;;;;;5084265;28;20040;-63
2024/01/07 01:41:18;;;;;;;4.35;2.33;;;-0.10;99.90;;;;;;5063103;28;20135;-63
2024/01/07 01:43:43;;;;;;;3.90;2.45;;;-0.10;99.90;;;;;;5056447;28;20029;-63
2024/01/07 01:46:09;;;;;;;3.75;2.10;;;-0.10;99.90;;;;;;5039586;28;20049;-64
2024/01/07 01:48:37;;;;;;;6.95;2.17;;;0.00;99.90;;;;;;5084439;28;20044;-63
2024/01/07 01:51:03;;;;;;;4.53;2.58;;;-0.10;99.90;;;;;;5071149;28;20056;-63
2024/01/07 01:53:30;;;;;;;6.22;2.92;;;0.00;99.90;;;;;;5059930;28;20048;-64
2024/01/07 01:55:57;;;;;;;2.47;2.20;;;0.00;99.90;;;;;;5077970;28;20064;-64
2024/01/07 01:58:23;;;;;;;5.30;2.20;;;0.10;99.90;;;;;;5064551;28;20127;-64
2024/01/07 02:00:53;;;;;;;2.72;2.15;;;0.00;99.90;;;;;;5082431;28;20044;-64
2024/01/07 02:03:19;;;;;;;3.13;1.90;;;0.00;99.90;;;;;;5064584;28;20425;-64
2024/01/07 02:05:45;;;;;;;2.35;1.70;;;0.00;99.90;;;;;;5080552;28;20032;-64
2024/01/07 02:08:11;;;;;;;2.15;1.83;;;0.00;99.90;;;;;;5054325;28;20051;-64
2024/01/07 02:10:37;;;;;;;3.25;2.22;;;0.10;99.90;;;;;;5070735;28;20128;-64
2024/01/07 02:13:03;;;;;;;4.45;1.85;;;0.10;99.90;;;;;;5070246;28;20081;-63
2024/01/07 02:15:30;;;;;;;2.15;1.40;;;0.10;99.90;;;;;;5063296;28;20401;-64
2024/01/07 02:17:56;;;;;;;2.15;1.92;;;0.10;99.90;;;;;;5073541;28;20125;-64
2024/01/07 02:20:22;;;;;;;4.30;1.98;;;0.10;99.90;;;;;;5080925;28;20126;-64
2024/01/07 02:22:47;;;;;;;2.53;1.55;;;0.10;99.90;;;;;;5080684;28;20037;-64
2024/01/07 02:25:13;;;;;;;4.20;2.17;;;0.20;99.90;;;;;;5071597;28;20048;-64
2024/01/07 02:27:39;;;;;;;3.80;1.95;;;0.10;99.90;;;;;;5076794;28;20572;-64
2024/01/07 02:30:05;;;;;;;4.32;1.98;;;0.20;99.90;;;;;;5076242;28;20056;-63
2024/01/07 02:32:35;;;;;;;5.65;2.25;;;0.20;99.90;;;;;;5052315;28;20141;-64
2024/01/07 02:35:02;;;;;;;4.88;2.08;;;0.10;99.90;;;;;;5054308;28;20045;-64
2024/01/07 02:37:27;;;;;;;6.25;2.00;;;0.10;99.90;;;;;;5075938;28;20032;-63
2024/01/07 02:39:53;;;;;;;2.38;1.50;;;0.10;99.90;;;;;;5077424;28;20043;-64
2024/01/07 02:42:19;;;;;;;5.65;2.00;;;0.20;99.90;;;;;;5081456;28;20044;-64
2024/01/07 02:44:44;;;;;;;4.25;2.15;;;0.20;99.90;;;;;;5079122;28;20406;-63
2024/01/07 02:47:10;;;;;;;3.33;1.70;;;0.20;99.90;;;;;;5069231;28;20040;-63
2024/01/07 02:49:36;;;;;;;1.88;1.58;;;0.20;99.90;;;;;;5075443;28;20055;-64
2024/01/07 02:52:02;;;;;;;2.72;1.58;;;0.20;99.90;;;;;;5054861;28;20037;-64
2024/01/07 02:54:27;;;;;;;3.20;1.70;;;0.20;99.90;;;;;;5053926;28;20047;-64
2024/01/07 02:56:53;;;;;;;7.80;1.63;;;0.10;99.90;;;;;;5049001;28;20048;-64
2024/01/07 02:59:19;;;;;;;7.75;1.33;;;0.10;99.90;;;;;;5060720;28;20083;-64
2024/01/07 03:01:45;;;;;;;3.42;1.35;;;0.10;99.90;;;;;;5077911;28;20042;-64
2024/01/07 03:04:12;;;;;;;4.50;1.85;;;0.10;99.90;;;;;;5076453;28;20075;-64
2024/01/07 03:06:38;;;;;;;1.80;1.13;;;0.10;99.90;;;;;;5069832;28;20567;-64
2024/01/07 03:09:04;;;;;;;2.35;1.50;;;0.10;99.90;;;;;;5063149;28;20047;-64
2024/01/07 03:11:29;;;;;;;2.75;1.25;;;0.10;99.90;;;;;;5081538;28;20047;-64
2024/01/07 03:13:56;;;;;;;2.13;1.40;;;0.10;99.90;;;;;;5082571;28;20115;-64
2024/01/07 03:16:23;;;;;;;1.75;1.20;;;0.10;99.90;;;;;;5068200;28;20230;-65
2024/01/07 03:18:49;;;;;;;2.15;1.48;;;0.10;99.90;;;;;;5070515;28;20060;-63
2024/01/07 03:21:22;;;;;;;1.10;0.90;;;0.10;99.90;;;;;;5069643;28;20094;-64
2024/01/07 03:23:49;;;;;;;5.00;1.20;;;0.10;99.90;;;;;;5036863;28;20139;-64
2024/01/07 03:26:15;;;;;;;1.67;1.42;;;0.10;99.90;;;;;;5070893;28;20040;-64
2024/01/07 03:28:41;;;;;;;4.95;1.98;;;0.10;99.90;;;;;;5072396;28;20055;-64
2024/01/07 03:31:09;;;;;;;1.48;1.38;;;0.10;99.90;;;;;;5062970;28;20041;-64
2024/01/07 03:33:37;;;;;;;2.10;1.90;;;0.10;99.90;;;;;;5071705;28;20366;-64
2024/01/07 03:36:10;;;;;;;1.92;1.38;;;0.10;99.90;;;;;;5079961;28;20040;-64
2024/01/07 03:38:36;;;;;;;5.18;1.80;;;0.10;99.90;;;;;;5067314;28;20044;-64
2024/01/07 03:41:02;;;;;;;1.77;1.40;;;0.10;99.90;;;;;;5062646;28;20047;-64
2024/01/07 03:43:28;;;;;;;2.95;1.40;;;0.10;99.90;;;;;;5039357;28;20470;-64
2024/01/07 03:45:54;;;;;;;3.33;1.73;;;0.20;99.90;;;;;;5080497;28;20131;-64
2024/01/07 03:48:20;;;;;;;2.75;1.48;;;0.10;99.90;;;;;;5079634;28;20453;-64
2024/01/07 03:50:46;;;;;;;1.70;1.38;;;0.10;99.90;;;;;;5054985;28;21954;-64
2024/01/07 03:53:12;;;;;;;1.70;1.30;;;0.10;99.90;;;;;;5066513;28;20044;-64
2024/01/07 03:55:38;;;;;;;2.08;1.38;;;0.20;99.90;;;;;;5069284;28;20052;-64
2024/01/07 03:58:05;;;;;;;2.47;1.42;;;0.20;99.90;;;;;;5068361;28;20043;-64
2024/01/07 04:00:31;;;;;;;2.53;1.30;;;0.20;99.90;;;;;;5047991;28;20049;-64
2024/01/07 04:02:57;;;;;;;5.63;1.02;;;0.20;99.90;;;;;;5059484;28;20064;-64
2024/01/07 04:05:23;;;;;;;5.70;0.88;;;0.20;99.90;;;;;;5057704;28;20044;-64
2024/01/07 04:07:48;;;;;;;3.95;1.10;;;0.20;99.90;;;;;;5048088;28;20044;-64
2024/01/07 04:10:16;;;;;;;2.20;1.20;;;0.20;99.90;;;;;;5066378;28;20048;-64
2024/01/07 04:12:42;;;;;;;1.48;1.33;;;0.20;99.90;;;;;;5053785;28;20045;-64
2024/01/07 04:15:08;;;;;;;1.83;1.17;;;0.20;99.90;;;;;;5059507;28;20109;-63
2024/01/07 04:17:34;;;;;;;2.22;1.08;;;0.20;99.90;;;;;;5045622;28;20058;-64
2024/01/07 04:19:59;;;;;;;3.55;1.35;;;0.20;99.90;;;;;;5067991;28;20379;-64
2024/01/07 04:22:25;;;;;;;6.75;1.52;;;0.30;99.90;;;;;;5054030;28;20080;-64
2024/01/07 04:24:51;;;;;;;1.55;1.05;;;0.30;99.90;;;;;;5063830;28;20052;-64
2024/01/07 04:27:18;;;;;;;2.88;1.20;;;0.30;99.90;;;;;;5060815;28;20047;-64
2024/01/07 04:29:43;;;;;;;0.80;0.80;;;0.30;99.90;;;;;;5059139;28;20135;-64
2024/01/07 04:32:09;;;;;;;2.53;1.05;;;0.20;99.90;;;;;;5056592;28;20128;-64
2024/01/07 04:34:35;;;;;;;3.00;1.10;;;0.30;99.90;;;;;;5066618;28;20090;-64
2024/01/07 04:37:03;;;;;;;2.20;1.05;;;0.20;99.90;;;;;;5068954;28;20040;-64
2024/01/07 04:39:29;;;;;;;1.70;1.20;;;0.30;99.90;;;;;;5067115;28;20091;-64
2024/01/07 04:41:55;;;;;;;1.48;1.25;;;0.30;99.90;;;;;;5058198;28;20063;-64
2024/01/07 04:44:20;;;;;;;2.55;1.15;;;0.20;99.90;;;;;;5064352;28;20059;-64
2024/01/07 04:46:49;;;;;;;2.35;1.15;;;0.30;99.90;;;;;;5049037;28;20037;-64
2024/01/07 04:49:14;;;;;;;3.00;1.27;;;0.30;61.20;;;;;;5062108;28;20040;-64
2024/01/07 04:51:40;;;;;;;0.82;0.70;;;0.20;55.20;;;;;;5061224;28;20045;-64
2024/01/07 04:54:06;;;;;;;1.45;1.15;;;0.30;95.40;;;;;;5059605;28;20037;-64
2024/01/07 04:56:32;;;;;;;4.25;0.80;;;0.20;98.20;;;;;;5066938;28;20095;-64
2024/01/07 04:58:58;;;;;;;4.32;1.10;;;0.20;99.00;;;;;;5067375;28;20037;-64
2024/01/07 05:01:24;;;;;;;1.80;0.95;;;0.30;97.00;;;;;;5068876;28;20089;-63
2024/01/07 05:03:52;;;;;;;2.40;0.82;;;0.20;94.60;;;;;;5077087;28;20520;-64
2024/01/07 05:06:18;;;;;;;3.22;0.90;;;0.30;93.70;;;;;;5080144;28;20093;-64
2024/01/07 05:08:43;;;;;;;1.45;1.10;;;0.20;89.50;;;;;;5080285;28;20135;-64
2024/01/07 05:11:09;;;;;;;2.00;0.75;;;0.30;82.30;;;;;;5083521;28;20044;-64
2024/01/07 05:13:35;;;;;;;2.33;1.10;;;0.20;84.00;;;;;;5075444;28;20044;-63
2024/01/07 05:16:02;;;;;;;2.15;0.57;;;0.30;77.90;;;;;;5082291;28;20044;-64
2024/01/07 05:18:28;;;;;;;1.80;0.90;;;0.30;83.10;;;;;;5072666;28;20198;-64
2024/01/07 05:20:54;;;;;;;2.92;1.25;;;0.30;80.80;;;;;;5053448;28;20208;-64
2024/01/07 05:23:20;;;;;;;3.75;0.98;;;0.30;78.80;;;;;;5083241;28;20036;-64
2024/01/07 05:25:46;;;;;;;2.65;0.98;;;0.30;78.90;;;;;;5069177;28;20119;-64
2024/01/07 05:28:13;;;;;;;2.38;1.00;;;0.30;78.80;;;;;;5066328;28;20033;-64
2024/01/07 05:30:41;;;;;;;2.75;1.00;;;0.30;85.30;;;;;;5065588;28;20104;-63
2024/01/07 05:33:06;;;;;;;1.15;0.80;;;0.30;74.90;;;;;;5084576;28;20409;-64
2024/01/07 05:35:32;;;;;;;2.85;0.80;;;0.30;69.50;;;;;;5071854;28;20043;-63
2024/01/07 05:37:58;;;;;;;2.45;0.85;;;0.30;78.50;;;;;;5073631;28;20059;-64
2024/01/07 05:40:24;;;;;;;2.28;0.95;;;0.30;77.10;;;;;;5065448;28;20040;-64
2024/01/07 05:42:49;;;;;;;3.22;0.98;;;0.40;70.50;;;;;;5069875;28;20410;-64
2024/01/07 05:45:15;;;;;;;2.05;0.70;;;0.30;66.50;;;;;;5075253;28;20402;-64
2024/01/07 05:47:41;;;;;;;1.98;0.85;;;0.40;66.30;;;;;;5070587;28;20521;-64
2024/01/07 05:50:10;;;;;;;4.32;0.82;;;0.40;67.30;;;;;;5077524;28;20478;-64
2024/01/07 05:52:36;;;;;;;1.10;0.70;;;0.30;65.90;;;;;;5082833;28;20539;-64
2024/01/07 05:55:02;;;;;;;0.77;0.77;;;0.40;63.40;;;;;;5065441;28;20118;-64
2024/01/07 05:57:28;;;;;;;7.78;1.20;;;0.30;59.90;;;;;;5075213;28;20047;-64
2024/01/07 05:59:54;;;;;;;3.53;0.80;;;0.30;58.10;;;;;;5075163;28;20565;-64
2024/01/07 06:02:22;;;;;;;2.63;0.80;;;0.30;61.00;;;;;;5083648;28;20131;-64
2024/01/07 06:04:48;;;;;;;1.25;0.90;;;0.30;61.10;;;;;;5078849;28;20055;-64
2024/01/07 06:07:13;;;;;;;1.77;0.65;;;0.30;54.60;;;;;;5079948;28;20090;-64
2024/01/07 06:09:39;;;;;;;1.35;0.85;;;0.30;52.50;;;;;;5073545;28;20043;-63
2024/01/07 06:12:05;;;;;;;1.08;0.75;;;0.40;62.90;;;;;;5083947;28;20051;-64
2024/01/07 06:14:31;;;;;;;0.70;0.70;;;0.30;52.40;;;;;;5073954;28;20474;-64
2024/01/07 06:16:56;;;;;;;4.65;1.00;;;0.20;54.10;;;;;;5064567;28;20810;-63
2024/01/07 06:19:22;;;;;;;2.35;0.63;;;0.20;57.30;;;;;;5067599;28;20067;-64
2024/01/07 06:21:48;;;;;;;2.17;0.80;;;0.20;55.60;;;;;;5056156;28;20533;-64
2024/01/07 06:24:14;;;;;;;4.53;0.60;;;0.20;55.20;;;;;;5071165;28;20048;-63
2024/01/07 06:26:40;;;;;;;4.90;0.60;;;0.20;55.50;;;;;;5080446;28;20047;-63
2024/01/07 06:29:06;;;;;;;1.08;0.73;;;0.20;48.10;;;;;;5078824;28;20123;-64
2024/01/07 06:31:32;;;;;;;1.63;0.88;;;0.20;54.10;;;;;;5077291;28;20088;-64
2024/01/07 06:33:58;;;;;;;1.23;0.82;;;0.20;60.20;;;;;;5046778;28;20047;-64
2024/01/07 06:36:25;;;;;;;1.38;0.63;;;0.20;58.20;;;;;;5060468;28;20474;-64
2024/01/07 06:38:51;;;;;;;1.60;0.60;;;0.10;49.80;;;;;;5049648;28;20551;-64
2024/01/07 06:41:16;;;;;;;2.25;0.60;;;0.20;56.40;;;;;;5083267;28;20052;-64
2024/01/07 06:43:42;;;;;;;1.20;0.90;;;0.10;53.70;;;;;;5080949;28;20044;-64
2024/01/07 06:46:08;;;;;;;2.03;1.17;;;0.10;57.30;;;;;;5081691;28;21215;-64
2024/01/07 06:48:33;;;;;;;0.90;0.60;;;0.00;60.40;;;;;;5081056;28;20126;-63
2024/01/07 06:50:59;;;;;;;0.82;0.63;;;0.00;49.50;;;;;;5082974;28;20379;-63
2024/01/07 06:53:25;;;;;;;2.30;0.73;;;0.00;48.00;;;;;;5081544;28;20085;-64
2024/01/07 06:55:51;;;;;;;2.42;0.73;;;-0.10;50.80;;;;;;5080205;28;20053;-64
2024/01/07 06:58:16;;;;;;;1.95;0.95;;;-0.20;47.80;;;;;;5081727;28;20410;-63
2024/01/07 07:00:42;;;;;;;3.20;1.02;;;-0.20;41.80;;;;;;5075541;28;20056;-64
2024/01/07 07:03:09;;;;;;;0.75;0.75;;;-0.20;47.40;;;;;;5083056;28;20048;-64
2024/01/07 07:05:35;;;;;;;2.53;1.02;;;-0.20;43.30;;;;;;5075480;28;20123;-64
2024/01/07 07:08:02;;;;;;;2.53;1.10;;;-0.20;39.30;;;;;;5056017;28;20442;-64
2024/01/07 07:10:27;;;;;;;0.82;0.60;;;-0.20;38.60;;;;;;5074050;28;20449;-64
2024/01/07 07:12:53;;;;;;;3.50;0.80;;;-0.20;38.50;;;;;;5073445;28;20045;-64
2024/01/07 07:15:19;;;;;;;2.63;0.80;;;-0.10;42.40;;;;;;5080965;28;20048;-64
2024/01/07 07:17:45;;;;;;;1.23;1.05;;;-0.10;49.10;;;;;;5074952;28;20044;-64
2024/01/07 07:20:11;;;;;;;1.80;0.70;;;0.00;56.40;;;;;;5071730;28;20045;-64
2024/01/07 07:22:37;;;;;;;3.72;0.88;;;0.00;44.80;;;;;;5076273;28;20517;-64
2024/01/07 07:25:02;;;;;;;2.80;1.02;;;0.00;40.80;;;;;;5077348;28;20127;-64
2024/01/07 07:27:28;;;;;;;2.55;0.88;;;0.00;37.50;;;;;;5063289;28;20058;-64
2024/01/07 07:29:54;;;;;;;4.05;0.60;;;0.10;41.70;;;;;;5074650;28;20093;-64
2024/01/07 07:32:20;;;;;;;1.95;0.70;;;0.10;40.80;;;;;;5063908;28;20047;-63
2024/01/07 07:34:46;;;;;;;1.50;0.80;;;0.10;38.40;;;;;;5080424;28;20390;-64
2024/01/07 07:37:13;;;;;;;2.08;0.93;;;0.10;39.20;;;;;;5073138;28;20127;-64
2024/01/07 07:39:39;;;;;;;4.47;0.70;;;0.10;37.00;;;;;;5069497;28;20627;-64
2024/01/07 07:42:04;;;;;;;2.75;0.80;;;0.10;35.90;;;;;;5048199;28;20032;-64
2024/01/07 07:44:30;;;;;;;6.35;0.93;;;0.10;38.00;;;;;;5073542;28;20097;-64
2024/01/07 07:46:56;;;;;;;0.70;0.55;;;0.10;43.90;;;;;;5058782;28;20050;-64
2024/01/07 07:49:21;;;;;;;1.65;0.88;;;0.10;43.90;;;;;;5054612;28;20040;-64
2024/01/07 07:51:47;;;;;;;2.17;0.68;;;0.20;43.10;;;;;;5075108;28;20083;-64
2024/01/07 07:54:13;;;;;;;1.73;0.80;;;0.20;36.70;;;;;;5080933;28;20040;-64
2024/01/07 07:56:38;;;;;;;3.65;0.77;;;0.20;37.90;;;;;;5057118;28;20048;-64
2024/01/07 07:59:04;;;;;;;0.80;0.60;;;0.20;31.70;;;;;;5078972;28;20445;-64
2024/01/07 08:01:30;;;;;;;0.80;0.80;;;0.30;30.70;;;;;;5078885;28;20128;-64
2024/01/07 08:03:56;;;;;;;3.17;0.80;;;0.30;35.90;;;;;;5081701;28;20153;-64
2024/01/07 08:06:21;;;;;;;1.80;0.80;;;0.30;35.90;;;;;;5079431;28;20044;-64
2024/01/07 08:08:47;;;;;;;1.25;0.80;;;0.30;39.80;;;;;;5082202;28;20040;-64
2024/01/07 08:11:13;;;;;;;2.92;1.05;;;0.30;45.20;;;;;;5080262;28;20388;-64
2024/01/07 08:13:39;;;;;;;1.23;0.75;;;0.40;45.00;;;;;;5063644;28;20055;-63
2024/01/07 08:16:05;;;;;;;7.22;1.10;;;0.30;43.10;;;;;;5078479;28;20052;-64
2024/01/07 08:18:32;;;;;;;3.65;0.73;;;0.30;41.20;;;;;;5078858;28;20115;-63
2024/01/07 08:20:58;;;;;;;3.45;0.82;;;0.30;39.30;;;;;;5080790;28;20186;-64
2024/01/07 08:23:27;;;;;;;1.27;0.73;;;0.40;41.70;;;;;;5081071;28;20042;-64
2024/01/07 08:25:53;;;;;;;0.50;0.50;;;0.40;42.10;;;;;;5080252;28;20690;-64
2024/01/07 08:28:20;;;;;;;4.75;1.10;;;0.40;42.00;;;;;;5081114;28;20059;-64
2024/01/07 08:30:46;;;;;;;1.25;0.80;;;0.40;45.90;;;;;;5079643;28;20494;-63
2024/01/07 08:33:12;;;;;;;2.17;0.90;;;0.50;47.40;;;;;;5076650;28;20048;-64
2024/01/07 08:35:38;;;;;;;1.42;0.90;;;0.40;39.40;;;;;;5074415;28;20052;-64
2024/01/07 08:38:05;;;;;;;2.28;1.00;;;0.40;36.30;;;;;;5055554;28;20043;-64
2024/01/07 08:40:31;;;;;;;1.55;0.90;;;0.40;38.90;;;;;;5059086;28;20135;-64
2024/01/07 08:42:57;;;;;;;1.98;1.00;;;0.40;29.70;;;;;;5082069;28;20122;-64
2024/01/07 08:45:22;;;;;;;1.48;0.85;;;0.40;31.30;;;;;;5079112;28;20048;-64
2024/01/07 08:47:48;;;;;;;3.05;1.00;;;0.50;38.10;;;;;;5063224;28;20040;-64
2024/01/07 08:50:14;;;;;;;2.67;1.05;;;0.50;45.70;;;;;;5080593;28;20055;-63
2024/01/07 08:52:40;;;;;;;1.77;0.80;;;0.50;46.70;;;;;;5061741;28;20044;-63
2024/01/07 08:55:07;;;;;;;0.80;0.77;;;0.50;44.70;;;;;;5079853;28;20047;-63
2024/01/07 08:57:33;;;;;;;3.45;1.13;;;0.50;41.10;;;;;;5084667;28;20047;-64
2024/01/07 08:59:58;;;;;;;2.83;0.77;;;0.50;40.80;;;;;;5080783;28;20068;-63
2024/01/07 09:02:25;;;;;;;5.35;1.40;;;0.50;43.50;;;;;;5066180;28;20051;-64
2024/01/07 09:04:52;;;;;;;3.05;1.05;;;0.60;41.00;;;;;;5050009;28;20123;-64
2024/01/07 09:07:19;;;;;;;2.75;1.10;;;0.60;39.50;;;;;;5080199;28;20056;-64
2024/01/07 09:09:45;;;;;;;2.13;0.90;;;0.60;29.30;;;;;;5079906;28;20052;-64
2024/01/07 09:12:10;;;;;;;3.90;0.98;;;0.60;25.20;;;;;;5065567;28;20043;-63
2024/01/07 09:14:38;;;;;;;1.55;0.93;;;0.60;26.30;;;;;;5038910;28;20052;-64
2024/01/07 09:17:04;;;;;;;3.20;1.10;;;0.60;26.90;;;;;;5085188;28;20048;-64
2024/01/07 09:19:29;;;;;;;1.48;0.73;;;0.70;30.60;;;;;;5081875;28;20121;-64
2024/01/07 09:21:56;;;;;;;1.40;1.13;;;0.70;36.40;;;;;;5085232;28;20058;-64
2024/01/07 09:24:22;;;;;;;0.80;0.80;;;0.70;33.40;;;;;;5071788;28;20493;-64
2024/01/07 09:26:48;;;;;;;2.33;1.08;;;0.70;25.40;;;;;;5070426;28;20055;-64
2024/01/07 09:29:13;;;;;;;5.57;1.00;;;0.70;25.40;;;;;;5079507;28;20047;-64
2024/01/07 09:31:40;;;;;;;1.60;0.90;;;0.70;21.00;;;;;;5082518;28;20044;-64
2024/01/07 09:34:06;;;;;;;0.55;0.52;;;0.80;25.40;;;;;;5066994;28;20036;-64
2024/01/07 09:36:35;;;;;;;1.80;1.10;;;0.80;34.60;;;;;;5064230;28;20121;-64
2024/01/07 09:39:01;;;;;;;4.90;1.02;;;0.70;25.20;;;;;;5084836;28;20052;-64
2024/01/07 09:41:27;;;;;;;3.97;0.88;;;0.80;25.30;;;;;;5080764;28;20089;-64
2024/01/07 09:43:53;;;;;;;2.42;0.80;;;0.90;29.70;;;;;;5084352;28;20375;-64
2024/01/07 09:46:19;;;;;;;1.92;0.90;;;0.90;31.30;;;;;;5082444;28;20040;-64
2024/01/07 09:48:45;;;;;;;1.70;1.00;;;1.00;25.60;;;;;;5084176;28;20159;-63
2024/01/07 09:51:11;;;;;;;2.45;0.95;;;0.90;25.30;;;;;;5082479;28;20040;-64
2024/01/07 09:53:42;;;;;;;2.92;0.98;;;0.80;25.80;;;;;;5081434;28;20097;-64
2024/01/07 09:56:23;;;;;;;2.03;0.90;;;0.70;22.10;;;;;;5076912;28;20043;-64
2024/01/07 09:58:49;;;;;;;1.70;0.90;;;0.70;21.60;;;;;;5082711;28;21252;-64
2024/01/07 10:01:18;;;;;;;1.83;0.80;;;0.60;23.10;;;;;;5083971;28;20047;-64
2024/01/07 10:03:44;;;;;;;1.30;1.00;;;0.70;25.70;;;;;;5082485;28;20098;-63
2024/01/07 10:06:18;;;;;;;2.38;0.65;;;0.80;27.40;;;;;;5082412;28;20589;-64
2024/01/07 10:08:44;;;;;;;1.15;0.98;;;0.80;28.20;;;;;;5083307;28;20044;-63
2024/01/07 10:11:13;;;;;;;1.45;0.95;;;0.90;28.10;;;;;;5076289;28;20462;-64
2024/01/07 10:13:38;;;;;;;1.63;1.05;;;0.90;24.00;;;;;;5076366;28;20052;-64
2024/01/07 10:16:04;;;;;;;1.20;1.02;;;1.00;24.30;;;;;;5080834;28;20156;-64
2024/01/07 10:18:31;;;;;;;1.42;1.05;;;1.00;25.20;;;;;;5065456;28;20056;-64
2024/01/07 10:21:03;;;;;;;4.07;1.80;;;1.10;23.20;;;;;;5080671;28;20054;-63
2024/01/07 10:23:29;;;;;;;3.78;1.25;;;1.10;22.40;;;;;;5082940;28;20448;-64
2024/01/07 10:25:56;;;;;;;1.63;1.10;;;1.10;23.90;;;;;;5063474;28;20040;-64
2024/01/07 10:28:22;;;;;;;2.50;1.00;;;1.10;27.20;;;;;;5064289;28;20517;-64
2024/01/07 10:30:52;;;;;;;1.38;1.08;;;1.00;28.00;;;;;;5066934;28;20047;-64
2024/01/07 10:33:22;;;;;;;3.97;1.47;;;1.00;26.80;;;;;;5081446;28;20105;-64
2024/01/07 10:35:53;;;;;;;;;;;0.90;27.50;;;;;;5082394;28;20855;-64
2024/01/07 10:38:19;;;;;;;2.33;1.67;;;0.90;31.00;;;;;;5081637;28;19997;-64
2024/01/07 10:40:47;;;;;;;9.88;1.75;;;1.00;37.50;;;;;;5083126;28;20153;-64
2024/01/07 10:43:16;;;;;;;1.48;1.30;;;1.10;42.10;;;;;;5063256;28;20055;-64
2024/01/07 10:45:45;;;;;;;2.67;1.60;;;1.10;42.90;;;;;;5061718;28;20139;-64
2024/01/07 10:48:14;;;;;;;5.07;1.80;;;1.10;41.90;;;;;;5083535;28;20109;-64
2024/01/07 10:50:42;;;;;;;5.53;1.92;;;1.20;44.50;;;;;;5081668;28;20490;-64
2024/01/07 10:53:13;;;;;;;2.28;1.48;;;1.10;43.10;;;;;;5078952;28;20434;-63
2024/01/07 10:55:42;;;;;;;3.90;1.42;;;1.10;49.10;;;;;;5081458;28;20083;-63
2024/01/07 10:58:09;;;;;;;4.15;2.00;;;1.10;54.90;;;;;;5064112;28;20505;-64
2024/01/07 11:00:35;;;;;;;4.55;1.92;;;1.10;52.70;;;;;;5060780;28;20398;-64
2024/01/07 11:03:12;;;;;;;4.88;2.25;;;1.10;51.40;;;;;;5057522;28;20059;-64
2024/01/07 11:05:58;;;;;;;3.35;1.55;;;1.20;54.40;;;;;;5060205;28;20185;-64
2024/01/07 11:08:45;;;;;;;6.90;1.85;;;1.20;59.20;;;;;;5062079;28;20044;-64
2024/01/07 11:11:18;;;;;;;3.90;1.77;;;1.20;54.00;;;;;;5055573;28;20051;-64
2024/01/07 11:13:44;;;;;;;3.47;1.98;;;1.30;53.70;;;;;;5047320;28;20107;-63
2024/01/07 11:16:13;;;;;;;5.30;1.85;;;1.30;44.60;;;;;;5055597;28;20115;-63
2024/01/07 11:18:56;;;;;;;4.57;1.90;;;1.30;47.20;;;;;;5061254;28;20778;-64
2024/01/07 11:21:24;;;;;;;3.97;1.70;;;1.30;54.00;;;;;;5060331;28;20410;-64
2024/01/07 11:23:52;;;;;;;3.80;1.95;;;1.40;59.70;;;;;;5061976;28;20056;-64
2024/01/07 11:26:17;;;;;;;2.35;1.60;;;1.40;49.40;;;;;;5061311;28;20516;-63
2024/01/07 11:28:52;;;;;;;8.43;2.15;;;1.40;50.20;;;;;;5058978;28;20135;-64
2024/01/07 11:31:20;;;;;;;4.90;1.45;;;1.40;48.20;;;;;;5061305;28;20152;-64
2024/01/07 11:33:50;;;;;;;6.38;2.03;;;1.40;55.70;;;;;;5060651;28;20115;-64
2024/01/07 11:36:18;;;;;;;2.85;1.55;;;1.40;55.10;;;;;;5058779;28;20381;-64
2024/01/07 11:38:48;;;;;;;4.68;1.85;;;1.50;57.80;;;;;;5058649;28;20048;-64
2024/01/07 11:41:15;;;;;;;2.25;1.83;;;1.50;53.50;;;;;;5060054;28;20087;-64
2024/01/07 11:43:54;;;;;;;4.20;1.60;;;1.60;55.20;;;;;;5061134;28;20053;-64
2024/01/07 11:46:21;;;;;;;6.32;2.03;;;1.60;53.70;;;;;;5055357;28;20051;-63
2024/01/07 11:48:48;;;;;;;4.57;1.45;;;1.60;51.00;;;;;;5058264;28;20442;-64
2024/01/07 11:51:14;;;;;;;3.88;1.40;;;1.60;47.60;;;;;;5060035;28;20052;-63
2024/01/07 11:53:40;;;;;;;5.28;1.67;;;1.50;51.80;;;;;;5060913;28;20470;-63
2024/01/07 11:56:08;;;;;;;9.02;1.98;;;1.50;50.10;;;;;;5059441;28;20764;-63
2024/01/07 11:58:35;;;;;;;2.80;1.65;;;1.50;51.30;;;;;;5060684;28;20043;-63
2024/01/07 12:01:03;;;;;;;5.88;1.92;;;1.50;58.60;;;;;;5067839;28;20461;-63
2024/01/07 12:03:28;;;;;;;6.20;2.22;;;1.50;52.60;;;;;;5079372;28;20056;-64
2024/01/07 12:05:54;;;;;;;4.00;1.63;;;1.50;46.60;;;;;;5080901;28;20070;-63
2024/01/07 12:08:20;;;;;;;4.88;1.45;;;1.50;47.40;;;;;;5080682;28;20123;-63
2024/01/07 12:10:46;;;;;;;6.40;2.10;;;1.50;45.80;;;;;;5078702;28;20551;-63
2024/01/07 12:13:12;;;;;;;6.45;1.73;;;1.60;44.70;;;;;;5081133;28;20150;-63
2024/01/07 12:15:39;;;;;;;3.80;1.80;;;1.60;49.50;;;;;;5082033;28;20040;-63
2024/01/07 12:18:05;;;;;;;2.42;1.85;;;1.80;52.70;;;;;;5058366;28;20059;-63
2024/01/07 12:20:31;;;;;;;4.03;2.17;;;1.90;50.10;;;;;;5074136;28;20232;-64
2024/01/07 12:23:04;;;;;;;9.73;2.20;;;2.00;39.70;;;;;;5058173;28;20398;-64
2024/01/07 12:25:30;;;;;;;5.45;1.85;;;2.00;44.30;;;;;;5052481;28;20051;-63
2024/01/07 12:27:56;;;;;;;6.85;2.03;;;1.80;42.40;;;;;;5069707;28;20040;-64
2024/01/07 12:30:24;;;;;;;3.88;2.50;;;1.70;42.80;;;;;;5066399;28;20151;-64
2024/01/07 12:32:52;;;;;;;4.93;2.22;;;1.60;37.90;;;;;;5070442;28;20064;-63
2024/01/07 12:35:18;;;;;;;3.72;1.52;;;1.30;43.70;;;;;;5051909;28;20496;-64
2024/01/07 12:37:44;;;;;;;4.60;2.20;;;1.20;48.10;;;;;;5083036;28;20088;-63
2024/01/07 12:40:11;;;;;;;3.28;2.22;;;1.10;52.10;;;;;;5065659;28;20142;-64
2024/01/07 12:42:44;;;;;;;2.78;2.00;;;1.00;53.10;;;;;;5065374;28;20131;-63
2024/01/07 12:45:14;;;;;;;6.60;2.22;;;0.90;56.00;;;;;;5060908;28;20094;-64
2024/01/07 12:47:44;;;;;;;5.28;2.13;;;0.80;61.70;;;;;;5060183;28;20043;-64
2024/01/07 12:50:11;;;;;;;8.60;2.20;;;0.90;65.50;;;;;;5071780;28;20488;-64
2024/01/07 12:52:39;;;;;;;4.70;1.77;;;1.00;68.50;;;;;;5075425;28;20498;-63
2024/01/07 12:55:05;;;;;;;7.93;2.10;;;1.10;68.20;;;;;;5062434;28;20397;-64